createdAt,value
2017-12-02T00:01:32.789Z,15.60
2017-12-02T00:04:01.096Z,14.87
2017-12-02T00:06:29.413Z,20.00
2017-12-02T00:08:57.834Z,13.57
2017-12-02T00:11:26.172Z,24.02
2017-12-02T00:13:55.281Z,14.07
2017-12-02T00:16:24.368Z,18.77
2017-12-02T00:18:53.457Z,19.27
2017-12-02T00:21:22.563Z,15.77
2017-12-02T00:23:51.657Z,20.33
2017-12-02T00:26:20.723Z,22.95
2017-12-02T00:28:49.060Z,18.17
2017-12-02T00:31:17.365Z,18.98
2017-12-02T00:33:45.669Z,16.30
2017-12-02T00:36:13.995Z,20.77
2017-12-02T00:38:42.296Z,22.45
2017-12-02T00:41:10.664Z,15.88
2017-12-02T00:43:38.987Z,14.43
2017-12-02T00:46:08.069Z,20.33
2017-12-02T00:48:36.402Z,16.35
2017-12-02T00:51:04.737Z,19.95
2017-12-02T00:53:33.860Z,25.67
2017-12-02T00:56:02.161Z,20.60
2017-12-02T00:58:30.492Z,20.98
2017-12-02T01:00:59.590Z,18.08
2017-12-02T01:03:28.683Z,23.30
2017-12-02T01:05:57.825Z,23.83
2017-12-02T01:08:26.185Z,19.27
2017-12-02T01:10:54.519Z,23.35
2017-12-02T01:13:23.610Z,24.95
2017-12-02T01:15:51.941Z,19.98
2017-12-02T01:18:20.237Z,21.80
2017-12-02T01:20:48.568Z,23.15
2017-12-02T01:23:16.894Z,20.17
2017-12-02T01:25:45.240Z,25.35
2017-12-02T01:28:13.585Z,20.12
2017-12-02T01:30:42.691Z,18.50
2017-12-02T01:33:11.021Z,16.87
2017-12-02T01:35:39.325Z,22.95
2017-12-02T01:38:07.641Z,17.90
2017-12-02T01:40:35.960Z,19.05
2017-12-02T01:43:04.300Z,21.10
2017-12-02T01:45:32.633Z,17.92
2017-12-02T01:48:01.740Z,18.90
2017-12-02T01:50:30.845Z,23.15
2017-12-02T01:52:59.276Z,19.20
2017-12-02T01:55:27.581Z,23.02
2017-12-02T01:57:56.644Z,19.12
2017-12-02T02:00:24.979Z,22.05
2017-12-02T02:02:53.279Z,19.02
2017-12-02T02:05:21.579Z,22.40
2017-12-02T02:07:50.053Z,23.00
2017-12-02T02:10:18.358Z,17.87
2017-12-02T02:12:46.725Z,17.60
2017-12-02T02:15:15.025Z,18.77
2017-12-02T02:17:43.342Z,21.27
2017-12-02T02:20:11.674Z,19.80
2017-12-02T02:22:40.800Z,17.52
2017-12-02T02:25:09.152Z,22.02
2017-12-02T02:27:38.243Z,20.98
2017-12-02T02:30:07.351Z,19.27
2017-12-02T02:32:36.441Z,14.65
2017-12-02T02:35:05.509Z,23.70
2017-12-02T02:37:33.843Z,20.95
2017-12-02T02:40:02.156Z,24.63
2017-12-02T02:42:30.483Z,24.48
2017-12-02T02:44:58.792Z,22.90
2017-12-02T02:47:27.100Z,24.63
2017-12-02T02:49:55.421Z,27.50
2017-12-02T02:52:23.750Z,22.77
2017-12-02T02:54:52.089Z,29.80
2017-12-02T02:57:20.436Z,23.95
2017-12-02T02:59:48.748Z,28.98
2017-12-02T03:02:17.069Z,20.27
2017-12-02T03:04:46.197Z,21.73
2017-12-02T03:07:14.532Z,26.15
2017-12-02T03:09:42.840Z,18.65
2017-12-02T03:12:11.194Z,23.55
2017-12-02T03:14:40.293Z,26.85
2017-12-02T03:17:09.428Z,21.90
2017-12-02T03:19:37.744Z,24.67
2017-12-02T03:22:06.228Z,21.15
2017-12-02T03:24:34.541Z,16.62
2017-12-02T03:27:02.868Z,20.60
2017-12-02T03:29:31.202Z,27.83
2017-12-02T03:31:59.503Z,20.10
2017-12-02T03:34:27.856Z,22.90
2017-12-02T03:36:56.167Z,26.73
2017-12-02T03:39:24.472Z,22.77
2017-12-02T03:41:52.817Z,24.00
2017-12-02T03:44:21.144Z,22.70
2017-12-02T03:46:50.250Z,22.60
2017-12-02T03:49:18.560Z,24.45
2017-12-02T03:51:46.896Z,26.85
2017-12-02T03:54:15.982Z,32.60
2017-12-02T03:56:44.316Z,24.45
2017-12-02T03:59:12.620Z,27.87
2017-12-02T04:01:40.950Z,28.17
2017-12-02T04:04:09.297Z,28.75
2017-12-02T04:06:38.372Z,26.48
2017-12-02T04:09:06.694Z,21.42
2017-12-02T04:11:35.000Z,27.23
2017-12-02T04:14:03.353Z,24.55
2017-12-02T04:16:31.668Z,27.45
2017-12-02T04:18:59.971Z,21.12
2017-12-02T04:21:29.064Z,30.30
2017-12-02T04:23:58.144Z,25.27
2017-12-02T04:26:26.792Z,25.55
2017-12-02T04:28:55.121Z,26.20
2017-12-02T04:31:24.232Z,24.08
2017-12-02T04:33:52.544Z,27.20
2017-12-02T04:36:20.864Z,19.23
2017-12-02T04:38:49.187Z,23.90
2017-12-02T04:41:17.500Z,26.05
2017-12-02T04:43:45.831Z,26.12
2017-12-02T04:46:14.143Z,23.23
2017-12-02T04:48:42.441Z,24.27
2017-12-02T04:51:10.780Z,24.90
2017-12-02T04:53:39.134Z,23.35
2017-12-02T04:56:07.456Z,21.92
2017-12-02T04:58:35.773Z,28.58
2017-12-02T05:01:04.129Z,21.58
2017-12-02T05:03:32.461Z,26.67
2017-12-02T05:06:00.776Z,23.02
2017-12-02T05:08:29.084Z,24.70
2017-12-02T05:10:58.177Z,22.27
2017-12-02T05:13:27.332Z,24.40
2017-12-02T05:15:55.631Z,30.10
2017-12-02T05:18:24.033Z,24.45
2017-12-02T05:20:53.152Z,26.70
2017-12-02T05:23:21.513Z,28.62
2017-12-02T05:26:17.477Z,22.83
2017-12-02T05:28:45.862Z,25.23
2017-12-02T05:31:14.410Z,26.95
2017-12-02T05:33:42.712Z,25.12
2017-12-02T05:36:11.062Z,27.25
2017-12-02T05:38:39.359Z,30.67
2017-12-02T05:41:07.677Z,29.02
2017-12-02T05:43:35.984Z,27.90
2017-12-02T05:46:04.297Z,24.80
2017-12-02T05:48:32.754Z,28.38
2017-12-02T05:51:01.080Z,28.70
2017-12-02T05:53:29.395Z,33.75
2017-12-02T05:55:57.782Z,26.75
2017-12-02T05:58:26.071Z,22.92
2017-12-02T06:00:54.385Z,21.85
2017-12-02T06:03:22.733Z,22.35
2017-12-02T06:05:51.028Z,33.07
2017-12-02T06:08:19.396Z,33.00
2017-12-02T06:10:47.700Z,32.35
2017-12-02T06:13:15.994Z,28.48
2017-12-02T06:15:45.100Z,30.48
2017-12-02T06:18:14.199Z,36.95
2017-12-02T06:20:42.520Z,38.03
2017-12-02T06:23:10.841Z,29.10
2017-12-02T06:25:39.925Z,34.05
2017-12-02T06:28:08.232Z,29.25
2017-12-02T06:30:36.565Z,30.17
2017-12-02T06:33:04.890Z,26.80
2017-12-02T06:35:33.213Z,26.67
2017-12-02T06:38:01.516Z,27.00
2017-12-02T06:40:30.621Z,33.63
2017-12-02T06:42:59.720Z,29.77
2017-12-02T06:45:28.050Z,36.58
2017-12-02T06:47:56.424Z,30.67
2017-12-02T06:50:24.805Z,20.48
2017-12-02T06:52:53.100Z,32.05
2017-12-02T06:55:21.404Z,35.60
2017-12-02T06:57:49.716Z,27.37
2017-12-02T07:00:18.064Z,25.35
2017-12-02T07:02:46.359Z,24.63
2017-12-02T07:05:14.686Z,29.95
2017-12-02T07:07:42.990Z,38.25
2017-12-02T07:10:11.349Z,33.92
2017-12-02T07:12:40.412Z,31.35
2017-12-02T07:15:08.827Z,30.62
2017-12-02T07:17:37.920Z,29.00
2017-12-02T07:20:06.997Z,28.40
2017-12-02T07:22:35.330Z,35.30
2017-12-02T07:25:03.653Z,30.50
2017-12-02T07:27:32.024Z,32.85
2017-12-02T07:30:00.349Z,31.83
2017-12-02T07:32:28.660Z,28.55
2017-12-02T07:34:56.981Z,41.10
2017-12-02T07:37:26.322Z,30.62
2017-12-02T07:39:54.648Z,28.12
2017-12-02T07:42:22.952Z,31.12
2017-12-02T07:44:51.296Z,41.60
2017-12-02T07:47:19.604Z,34.78
2017-12-02T07:49:47.949Z,33.40
2017-12-02T07:52:16.281Z,40.85
2017-12-02T07:54:44.631Z,37.08
2017-12-02T07:57:12.949Z,28.30
2017-12-02T07:59:41.264Z,38.25
2017-12-02T08:02:09.611Z,38.60
2017-12-02T08:04:37.926Z,24.42
2017-12-02T08:07:07.023Z,28.08
2017-12-02T08:09:36.117Z,24.45
2017-12-02T08:12:05.191Z,37.53
2017-12-02T08:14:33.545Z,26.77
2017-12-02T08:17:01.845Z,30.02
2017-12-02T08:19:30.147Z,31.85
2017-12-02T08:21:59.266Z,36.42
2017-12-02T08:24:28.096Z,35.22
2017-12-02T08:26:56.415Z,29.50
2017-12-02T08:29:24.728Z,32.83
2017-12-02T08:31:53.046Z,24.48
2017-12-02T08:34:22.142Z,28.75
2017-12-02T08:36:50.472Z,29.10
2017-12-02T08:39:18.799Z,34.38
2017-12-02T08:41:47.106Z,35.05
2017-12-02T08:44:15.446Z,28.55
2017-12-02T08:46:43.774Z,34.95
2017-12-02T08:49:12.105Z,32.90
2017-12-02T08:51:41.215Z,32.40
2017-12-02T08:54:10.316Z,34.03
2017-12-02T08:56:38.645Z,27.20
2017-12-02T08:59:06.965Z,26.30
2017-12-02T09:01:36.062Z,33.92
2017-12-02T09:04:05.199Z,28.33
2017-12-02T09:06:33.516Z,37.67
2017-12-02T09:09:01.853Z,29.45
2017-12-02T09:11:30.169Z,34.85
2017-12-02T09:13:58.484Z,29.25
2017-12-02T09:16:26.806Z,26.62
2017-12-02T09:18:55.137Z,32.67
2017-12-02T09:21:23.442Z,24.87
2017-12-02T09:23:51.732Z,21.08
2017-12-02T09:26:20.064Z,28.42
2017-12-02T09:28:48.368Z,30.98
2017-12-02T09:31:16.693Z,26.30
2017-12-02T09:33:45.736Z,25.73
2017-12-02T09:36:14.099Z,32.33
2017-12-02T09:38:42.413Z,31.73
2017-12-02T09:41:10.749Z,29.48
2017-12-02T09:43:39.074Z,27.95
2017-12-02T09:46:07.369Z,26.65
2017-12-02T09:48:36.502Z,28.65
2017-12-02T09:51:04.827Z,35.08
2017-12-02T09:53:33.153Z,26.75
2017-12-02T09:56:01.456Z,19.70
2017-12-02T09:58:29.785Z,19.67
2017-12-02T10:00:58.859Z,24.65
2017-12-02T10:03:27.177Z,28.02
2017-12-02T10:05:55.465Z,28.85
2017-12-02T10:08:23.868Z,29.55
2017-12-02T10:10:52.155Z,28.70
2017-12-02T10:13:20.471Z,25.70
2017-12-02T10:15:48.766Z,23.50
2017-12-02T10:18:17.101Z,25.70
2017-12-02T10:20:46.152Z,23.90
2017-12-02T10:23:14.473Z,28.12
2017-12-02T10:25:43.559Z,28.52
2017-12-02T10:28:11.885Z,25.70
2017-12-02T10:30:40.208Z,25.85
2017-12-02T10:33:08.537Z,26.65
2017-12-02T10:35:36.824Z,28.38
2017-12-02T10:38:05.161Z,27.30
2017-12-02T10:40:34.269Z,24.75
2017-12-02T10:43:02.580Z,23.35
2017-12-02T10:45:30.897Z,23.42
2017-12-02T10:47:59.957Z,31.08
2017-12-02T10:50:28.273Z,22.95
2017-12-02T10:52:57.376Z,30.08
2017-12-02T10:55:26.427Z,21.87
2017-12-02T10:57:54.779Z,27.25
2017-12-02T11:00:23.085Z,27.77
2017-12-02T11:02:51.385Z,27.48
2017-12-02T11:05:19.725Z,26.12
2017-12-02T11:07:48.105Z,28.77
2017-12-02T11:10:16.552Z,28.55
2017-12-02T11:12:44.895Z,25.70
2017-12-02T11:15:13.188Z,29.40
2017-12-02T11:17:42.248Z,25.77
2017-12-02T11:20:10.581Z,29.25
2017-12-02T11:22:38.929Z,24.23
2017-12-02T11:25:17.568Z,29.12
2017-12-02T11:27:46.661Z,25.08
2017-12-02T11:30:15.011Z,25.15
2017-12-02T11:32:44.108Z,28.52
2017-12-02T11:35:12.468Z,26.27
2017-12-02T11:37:40.769Z,26.40
2017-12-02T11:40:09.116Z,25.40
2017-12-02T11:42:37.412Z,23.15
2017-12-02T11:45:06.508Z,27.27
2017-12-02T11:47:34.840Z,21.15
2017-12-02T11:50:03.128Z,35.08
2017-12-02T11:52:31.439Z,23.60
2017-12-02T11:54:59.799Z,23.38
2017-12-02T11:57:28.096Z,23.52
2017-12-02T11:59:56.415Z,24.55
2017-12-02T12:02:24.749Z,25.77
2017-12-02T12:04:53.102Z,26.98
2017-12-02T12:07:21.468Z,27.70
2017-12-02T12:09:49.769Z,25.45
2017-12-02T12:12:18.145Z,22.77
2017-12-02T12:14:46.475Z,27.92
2017-12-02T12:17:14.863Z,26.98
2017-12-02T12:19:43.169Z,24.92
2017-12-02T12:22:11.510Z,17.48
2017-12-02T12:24:39.921Z,23.75
2017-12-02T12:27:08.390Z,16.80
2017-12-02T12:29:36.712Z,21.13
2017-12-02T12:32:05.830Z,23.33
2017-12-02T12:34:34.165Z,17.95
2017-12-02T12:37:02.455Z,25.65
2017-12-02T12:39:30.801Z,21.62
2017-12-02T12:41:59.114Z,22.20
2017-12-02T12:44:27.474Z,21.73
2017-12-02T12:46:55.813Z,20.40
2017-12-02T12:49:24.122Z,21.47
2017-12-02T12:51:52.417Z,19.30
2017-12-02T12:54:20.733Z,21.63
2017-12-02T12:56:49.031Z,23.33
2017-12-02T12:59:17.340Z,17.33
2017-12-02T13:01:45.652Z,22.47
2017-12-02T13:04:13.970Z,20.03
2017-12-02T13:06:42.346Z,20.50
2017-12-02T13:09:11.473Z,19.87
2017-12-02T13:11:39.795Z,25.43
2017-12-02T13:14:08.098Z,30.23
2017-12-02T13:16:36.419Z,23.33
2017-12-02T13:19:05.553Z,17.37
2017-12-02T13:21:33.852Z,23.67
2017-12-02T13:24:02.172Z,18.80
2017-12-02T13:26:30.621Z,20.23
2017-12-02T13:28:58.923Z,20.17
2017-12-02T13:31:27.984Z,19.57
2017-12-02T13:33:56.339Z,20.03
2017-12-02T13:36:24.645Z,17.40
2017-12-02T13:38:52.952Z,17.10
2017-12-02T13:41:22.036Z,16.40
2017-12-02T13:43:50.332Z,20.40
2017-12-02T13:46:19.411Z,16.23
2017-12-02T13:48:47.696Z,17.80
2017-12-02T13:51:16.823Z,12.67
2017-12-02T13:53:45.160Z,13.70
2017-12-02T13:56:14.272Z,15.47
2017-12-02T13:58:43.352Z,13.13
2017-12-02T14:01:12.414Z,17.53
2017-12-02T14:03:40.780Z,18.20
2017-12-02T14:06:09.086Z,16.10
2017-12-02T14:08:37.377Z,13.27
2017-12-02T14:11:06.460Z,13.57
2017-12-02T14:13:34.748Z,14.47
2017-12-02T14:16:03.120Z,15.63
2017-12-02T14:18:31.518Z,13.93
2017-12-02T14:20:59.859Z,12.50
2017-12-02T14:23:28.168Z,14.10
2017-12-02T14:25:57.244Z,14.23
2017-12-02T14:28:26.321Z,15.85
2017-12-02T14:30:54.633Z,19.30
2017-12-02T14:33:23.720Z,14.95
2017-12-02T14:35:52.780Z,17.70
2017-12-02T14:38:21.105Z,15.90
2017-12-02T14:40:49.475Z,14.90
2017-12-02T14:43:18.569Z,18.70
2017-12-02T14:45:46.917Z,15.80
2017-12-02T14:48:15.210Z,23.37
2017-12-02T14:50:43.606Z,16.25
2017-12-02T14:53:12.697Z,18.20
2017-12-02T14:55:41.769Z,22.43
2017-12-02T14:58:10.125Z,21.95
2017-12-02T15:00:38.437Z,14.00
2017-12-02T15:03:07.521Z,22.02
2017-12-02T15:05:35.897Z,18.10
2017-12-02T15:08:10.772Z,17.55
2017-12-02T15:10:39.079Z,18.12
2017-12-02T15:13:07.415Z,16.50
2017-12-02T15:15:35.741Z,20.65
2017-12-02T15:18:04.106Z,19.10
2017-12-02T15:20:32.399Z,19.48
2017-12-02T15:23:00.710Z,17.65
2017-12-02T15:25:29.840Z,24.85
2017-12-02T15:27:58.156Z,18.35
2017-12-02T15:30:26.458Z,19.98
2017-12-02T15:32:55.535Z,23.08
2017-12-02T15:35:23.868Z,21.02
2017-12-02T15:37:52.204Z,21.37
2017-12-02T15:40:21.270Z,20.42
2017-12-02T15:42:49.614Z,22.55
2017-12-02T15:45:17.934Z,22.90
2017-12-02T15:47:46.274Z,14.25
2017-12-02T15:50:14.609Z,20.85
2017-12-02T15:52:43.864Z,20.12
2017-12-02T15:55:12.178Z,21.67
2017-12-02T15:57:41.325Z,19.62
2017-12-02T16:00:09.633Z,21.33
2017-12-02T16:02:37.977Z,26.77
2017-12-02T16:05:06.352Z,27.17
2017-12-02T16:07:34.849Z,34.08
2017-12-02T16:10:03.171Z,18.70
2017-12-02T16:12:31.496Z,24.52
2017-12-02T16:14:59.836Z,22.42
2017-12-02T16:17:28.149Z,21.20
2017-12-02T16:19:56.473Z,25.25
2017-12-02T16:22:25.547Z,20.55
2017-12-02T16:24:54.007Z,23.40
2017-12-02T16:27:22.420Z,26.37
2017-12-02T16:29:50.698Z,23.20
2017-12-02T16:32:18.995Z,28.98
2017-12-02T16:34:47.336Z,19.02
2017-12-02T16:37:15.652Z,26.15
2017-12-02T16:39:44.757Z,22.42
2017-12-02T16:42:13.057Z,22.37
2017-12-02T16:44:41.392Z,28.95
2017-12-02T16:47:10.533Z,21.40
2017-12-02T16:49:38.832Z,28.33
2017-12-02T16:52:07.155Z,20.33
2017-12-02T16:54:35.448Z,21.90
2017-12-02T16:57:03.767Z,17.00
2017-12-02T16:59:32.061Z,24.80
2017-12-02T17:02:00.400Z,21.65
2017-12-02T17:04:29.052Z,29.17
2017-12-02T17:06:57.379Z,25.12
2017-12-02T17:09:25.738Z,25.75
2017-12-02T17:11:54.034Z,24.20
2017-12-02T17:14:22.348Z,29.60
2017-12-02T17:16:51.480Z,26.23
2017-12-02T17:19:19.784Z,22.17
2017-12-02T17:21:48.124Z,29.02
2017-12-02T17:24:16.500Z,27.23
2017-12-02T17:26:44.860Z,23.80
2017-12-02T17:29:13.293Z,31.35
2017-12-02T17:31:41.608Z,30.70
2017-12-02T17:34:10.683Z,25.92
2017-12-02T17:36:39.007Z,35.33
2017-12-02T17:39:07.305Z,28.38
2017-12-02T17:41:35.621Z,24.65
2017-12-02T17:44:04.728Z,32.08
2017-12-02T17:46:33.787Z,29.77
2017-12-02T17:49:02.102Z,31.27
2017-12-02T17:51:31.213Z,35.78
2017-12-02T17:53:59.520Z,30.73
2017-12-02T17:56:27.827Z,25.02
2017-12-02T17:58:56.957Z,30.42
2017-12-02T18:01:25.274Z,42.42
2017-12-02T18:03:53.573Z,29.00
2017-12-02T18:06:21.896Z,28.45
2017-12-02T18:08:50.273Z,38.33
2017-12-02T18:11:18.577Z,30.55
2017-12-02T18:13:46.875Z,31.77
2017-12-02T18:16:15.208Z,27.92
2017-12-02T18:18:43.499Z,29.48
2017-12-02T18:21:11.814Z,33.53
2017-12-02T18:23:40.146Z,22.70
2017-12-02T18:26:08.525Z,38.72
2017-12-02T18:28:36.825Z,23.83
2017-12-02T18:31:05.124Z,27.52
2017-12-02T18:33:33.493Z,33.65
2017-12-02T18:36:01.788Z,27.35
2017-12-02T18:38:30.949Z,30.62
2017-12-02T18:40:59.293Z,31.67
2017-12-02T18:43:27.634Z,30.50
2017-12-02T18:45:56.704Z,36.50
2017-12-02T18:48:25.038Z,36.08
2017-12-02T18:50:59.578Z,31.92
2017-12-02T18:53:27.993Z,31.02
2017-12-02T18:55:56.304Z,37.80
2017-12-02T18:58:24.652Z,30.15
2017-12-02T19:00:52.986Z,34.92
2017-12-02T19:03:21.285Z,33.08
2017-12-02T19:05:49.599Z,38.92
2017-12-02T19:08:18.657Z,33.92
2017-12-02T19:10:46.988Z,25.33
2017-12-02T19:13:15.302Z,29.12
2017-12-02T19:15:43.617Z,31.55
2017-12-02T19:18:12.752Z,30.92
2017-12-02T19:20:41.102Z,30.00
2017-12-02T19:23:10.157Z,42.70
2017-12-02T19:25:38.605Z,30.25
2017-12-02T19:28:06.927Z,37.00
2017-12-02T19:30:35.252Z,35.13
2017-12-02T19:33:03.603Z,28.08
2017-12-02T19:35:32.732Z,35.08
2017-12-02T19:38:01.052Z,33.85
2017-12-02T19:40:29.388Z,34.03
2017-12-02T19:42:57.695Z,34.75
2017-12-02T19:45:26.005Z,29.50
2017-12-02T19:47:55.128Z,24.40
2017-12-02T19:50:24.213Z,27.55
2017-12-02T19:52:52.532Z,26.50
2017-12-02T19:55:20.855Z,21.77
2017-12-02T19:57:49.292Z,31.27
2017-12-02T20:00:17.595Z,26.25
2017-12-02T20:02:45.914Z,31.98
2017-12-02T20:05:14.237Z,31.45
2017-12-02T20:07:42.572Z,25.27
2017-12-02T20:10:10.911Z,27.90
2017-12-02T20:12:40.020Z,24.55
2017-12-02T20:15:08.353Z,29.85
2017-12-02T20:17:36.680Z,25.20
2017-12-02T20:20:05.019Z,29.10
2017-12-02T20:22:33.364Z,24.85
2017-12-02T20:25:01.657Z,30.20
2017-12-02T20:27:31.239Z,31.37
2017-12-02T20:30:00.433Z,26.10
2017-12-02T20:32:28.736Z,27.60
2017-12-02T20:34:57.216Z,25.62
2017-12-02T20:37:26.326Z,24.83
2017-12-02T20:39:54.657Z,31.25
2017-12-02T20:42:23.073Z,22.55
2017-12-02T20:44:51.740Z,29.85
2017-12-02T20:47:20.072Z,26.90
2017-12-02T20:49:49.246Z,25.45
2017-12-02T20:52:17.754Z,29.75
2017-12-02T20:54:47.365Z,27.02
2017-12-02T20:57:16.476Z,22.62
2017-12-02T20:59:45.237Z,27.33
2017-12-02T21:02:14.340Z,27.35
2017-12-02T21:04:43.607Z,26.73
2017-12-02T21:07:12.045Z,33.75
2017-12-02T21:09:40.373Z,32.00
2017-12-02T21:12:08.673Z,33.40
2017-12-02T21:14:37.080Z,29.50
2017-12-02T21:17:05.413Z,29.27
2017-12-02T21:19:34.668Z,27.05
2017-12-02T21:22:02.970Z,21.75
2017-12-02T21:24:31.373Z,27.45
2017-12-02T21:27:00.769Z,28.30
2017-12-02T21:29:29.856Z,31.92
2017-12-02T21:31:58.144Z,26.17
2017-12-02T21:34:27.379Z,29.83
2017-12-02T21:36:55.754Z,34.10
2017-12-02T21:39:24.052Z,24.80
2017-12-02T21:41:52.373Z,27.52
2017-12-02T21:44:21.467Z,28.05
2017-12-02T21:46:50.568Z,32.17
2017-12-02T21:49:19.617Z,22.23
2017-12-02T21:51:47.903Z,32.13
2017-12-02T21:54:16.224Z,25.23
2017-12-02T21:56:45.288Z,28.60
2017-12-02T21:59:13.626Z,22.85
2017-12-02T22:01:42.040Z,35.83
2017-12-02T22:04:10.332Z,28.50
2017-12-02T22:06:39.428Z,28.42
2017-12-02T22:09:08.492Z,31.48
2017-12-02T22:11:36.799Z,23.05
2017-12-02T22:14:05.129Z,23.27
2017-12-02T22:16:33.427Z,25.40
2017-12-02T22:19:01.751Z,27.40
2017-12-02T22:21:30.076Z,21.45
2017-12-02T22:23:58.390Z,27.98
2017-12-02T22:26:27.488Z,30.67
2017-12-02T22:28:56.543Z,28.17
2017-12-02T22:31:24.900Z,27.35
2017-12-02T22:33:53.193Z,30.65
2017-12-02T22:36:21.529Z,25.65
2017-12-02T22:38:49.820Z,30.35
2017-12-02T22:41:18.109Z,33.50
2017-12-02T22:43:46.420Z,26.95
2017-12-02T22:46:14.705Z,22.08
2017-12-02T22:48:43.024Z,34.17
2017-12-02T22:51:11.356Z,20.55
2017-12-02T22:53:39.668Z,21.52
2017-12-02T22:56:07.969Z,31.05
2017-12-02T22:58:36.308Z,25.88
2017-12-02T23:01:05.369Z,26.90
2017-12-02T23:03:33.679Z,26.08
2017-12-02T23:06:02.794Z,26.52
2017-12-02T23:08:31.083Z,30.83
2017-12-02T23:10:59.401Z,18.75
2017-12-02T23:13:27.756Z,25.92
2017-12-02T23:15:56.047Z,31.73
2017-12-02T23:18:24.410Z,31.37
2017-12-02T23:20:52.729Z,20.17
2017-12-02T23:23:21.850Z,30.98
2017-12-02T23:25:50.962Z,27.20
2017-12-02T23:28:19.344Z,26.12
2017-12-02T23:30:47.632Z,28.48
2017-12-02T23:33:15.969Z,24.67
2017-12-02T23:35:44.300Z,26.80
2017-12-02T23:38:12.612Z,23.75
2017-12-02T23:40:41.668Z,22.90
2017-12-02T23:43:09.990Z,30.27
2017-12-02T23:45:38.282Z,27.65
2017-12-02T23:48:06.622Z,23.38
2017-12-02T23:50:35.013Z,24.65
2017-12-02T23:53:04.066Z,32.30
2017-12-02T23:55:32.435Z,20.85
2017-12-02T23:58:00.724Z,27.77
